Accueil
METAR-TAF:

METAR-TAF

Aéroports :

Base aérienne

Niederstetten, Allemagne

latitude: 49-24N, longitude: 009-58E, altitude: 468 m

Observation

Le bulletin a été fait il y a 40 minutes, à 17:20 UTC
Vent 8 kt de sud-est
Température 0°C
Humidité 100%
Pression 1021 hPa
Visibilité: 0200 m
brouillard givrant

METAR: ETHN 261720Z 13008KT 0200 FZFG VV000 M00/M00 Q1021 RED

Heure: 19:00 (18:00 UTC)

Prévision

Le bulletin a été fait il y a 4 heures et 0 minutes, à 14:00 UTC
Prévision valable du 26 à 15 UTC au 26 à 24 UTC
Vent 5 kt de sud/sud-est
Visibilité: 0400 m
à une hauteur de 100 ft
brouillard

TAF: ETHN 261400Z 2615/2624 15005KT 0400 FG VV001

Observations et prévisions météorologiques de plus de 4000 aéroports (messages METAR et TAF).

Les stations disponibles sont représentées par des disques jaunes et rouges sur la carte.

Passer la souris dessus pour voir le nom de la station.

Cliquer dessus pour voir les observations et prévisions météorologiques.

Pour changer de carte: cliquez sur les boutons verts avec une croix noire pour zoomer, sur le bouton vert avec un tiret pour effectuer un zoom arrière, ou sur les flèches vertes pour les cartes adjacentes.


METAR-TAF: